首页
METAR-TAF:

METAR-TAF

机场 :

策尔特韦格, 奥地利

纬度: 47-12N, 经度: 014-45E, 海拔: 677米

当前天气观测

该预报发布于43分钟前的15:50 UTC
风速3节,风向多变
温度 1°C
湿度 80%
气压 988 hPa
能見度: 5000
小雪, 轻雾

METAR: LOXZ 131550Z VRB03KT 5000 -SN BR FEW003ST SCT012ST BKN020SC 01/M02 Q0988

时间: 17:33 (16:33 UTC)

预报

该预报发布于5小时和18分钟前的11:15 UTC
预报有效从13日的 12点(UTC)到 13日的 21点(UTC)
风速10节,风向西
能见度10公里或以上
散云层高于4000英尺
多云层高于20000英尺
成为
从 13日的 13点(UTC)到 13日的 15点(UTC)
能見度: 7000
散云层高于1000英尺
多云层高于4000英尺
小雪
几率 30% :
短暂存在
从 13日的 17点(UTC)到 13日的 20点(UTC)
能見度: 0800
层高于1000英尺

TAF: LOXZ 131115Z 1312/1321 27010KT 9999 SCT040 BKN200 BECMG 1313/1315 7000 -SN SCT010 BKN040 PROB30 TEMPO 1317/1320 0800 SN VV010

超过4000个机场的气象观测和天气预报(METAR&TAF报告)。

可查询的气象台以黄色和红色小点在地图上表示。

将鼠标移到小点上方,可查看气象台名称。

然后点击查看天气观测和预报。

如需切换地图:点击带黑十字的绿色按钮放大地图;点击带横线的绿色按钮缩小地图;或者点击绿色箭头查看邻近地区的地图。


METAR-TAF: